sensor_id;sensor_type;location;lat;lon;timestamp;temperature;humidity
12370;DHT22;6249;52.128;9.986;2022-08-02T00:02:10;15.80;99.90
12370;DHT22;6249;52.128;9.986;2022-08-02T00:05:31;15.80;99.90
12370;DHT22;6249;52.128;9.986;2022-08-02T00:08:54;15.80;99.90
12370;DHT22;6249;52.128;9.986;2022-08-02T00:12:15;15.80;99.90
12370;DHT22;6249;52.128;9.986;2022-08-02T00:15:38;15.80;99.90
12370;DHT22;6249;52.128;9.986;2022-08-02T00:18:59;15.80;99.90
12370;DHT22;6249;52.128;9.986;2022-08-02T00:22:22;15.80;99.90
12370;DHT22;6249;52.128;9.986;2022-08-02T00:25:42;15.70;99.90
12370;DHT22;6249;52.128;9.986;2022-08-02T00:29:06;15.60;99.90
12370;DHT22;6249;52.128;9.986;2022-08-02T00:32:26;15.50;99.90
12370;DHT22;6249;52.128;9.986;2022-08-02T00:35:47;15.50;99.90
12370;DHT22;6249;52.128;9.986;2022-08-02T00:39:08;15.40;99.90
12370;DHT22;6249;52.128;9.986;2022-08-02T00:42:31;15.40;99.90
12370;DHT22;6249;52.128;9.986;2022-08-02T00:45:51;15.40;99.90
12370;DHT22;6249;52.128;9.986;2022-08-02T00:49:12;15.30;99.90
12370;DHT22;6249;52.128;9.986;2022-08-02T00:52:33;15.20;99.90
12370;DHT22;6249;52.128;9.986;2022-08-02T00:55:54;15.10;99.90
12370;DHT22;6249;52.128;9.986;2022-08-02T00:59:14;15.10;99.90
12370;DHT22;6249;52.128;9.986;2022-08-02T01:02:40;14.90;99.90
12370;DHT22;6249;52.128;9.986;2022-08-02T01:06:00;14.90;99.90
12370;DHT22;6249;52.128;9.986;2022-08-02T01:09:25;14.80;99.90
12370;DHT22;6249;52.128;9.986;2022-08-02T01:12:46;14.80;99.90
12370;DHT22;6249;52.128;9.986;2022-08-02T01:16:19;14.80;99.90
12370;DHT22;6249;52.128;9.986;2022-08-02T01:19:46;14.80;99.90
12370;DHT22;6249;52.128;9.986;2022-08-02T01:23:34;14.80;99.90
12370;DHT22;6249;52.128;9.986;2022-08-02T01:27:16;14.80;99.90
12370;DHT22;6249;52.128;9.986;2022-08-02T01:30:43;14.80;99.90
12370;DHT22;6249;52.128;9.986;2022-08-02T01:38:13;14.70;99.90
12370;DHT22;6249;52.128;9.986;2022-08-02T01:41:36;14.70;99.90
12370;DHT22;6249;52.128;9.986;2022-08-02T01:44:59;14.50;99.90
12370;DHT22;6249;52.128;9.986;2022-08-02T01:48:25;14.50;99.90
12370;DHT22;6249;52.128;9.986;2022-08-02T01:51:51;14.40;99.90
12370;DHT22;6249;52.128;9.986;2022-08-02T01:55:43;14.40;99.90
12370;DHT22;6249;52.128;9.986;2022-08-02T01:59:04;14.30;99.90
12370;DHT22;6249;52.128;9.986;2022-08-02T02:02:28;14.20;99.90
12370;DHT22;6249;52.128;9.986;2022-08-02T02:05:53;14.10;99.90
12370;DHT22;6249;52.128;9.986;2022-08-02T02:09:15;14.10;99.90
12370;DHT22;6249;52.128;9.986;2022-08-02T02:12:38;13.90;99.90
12370;DHT22;6249;52.128;9.986;2022-08-02T02:16:02;13.90;99.90
12370;DHT22;6249;52.128;9.986;2022-08-02T02:19:24;13.80;99.90
12370;DHT22;6249;52.128;9.986;2022-08-02T02:22:47;13.80;99.90
12370;DHT22;6249;52.128;9.986;2022-08-02T02:26:12;13.70;99.90
12370;DHT22;6249;52.128;9.986;2022-08-02T02:29:42;13.70;99.90
12370;DHT22;6249;52.128;9.986;2022-08-02T02:33:05;13.70;99.90
12370;DHT22;6249;52.128;9.986;2022-08-02T02:36:31;13.70;99.90
12370;DHT22;6249;52.128;9.986;2022-08-02T02:39:54;13.70;99.90
12370;DHT22;6249;52.128;9.986;2022-08-02T02:43:19;13.70;99.90
12370;DHT22;6249;52.128;9.986;2022-08-02T02:46:41;13.70;99.90
12370;DHT22;6249;52.128;9.986;2022-08-02T02:50:03;13.70;99.90
12370;DHT22;6249;52.128;9.986;2022-08-02T02:53:24;13.70;99.90
12370;DHT22;6249;52.128;9.986;2022-08-02T02:56:47;13.70;99.90
12370;DHT22;6249;52.128;9.986;2022-08-02T03:00:13;13.80;99.90
12370;DHT22;6249;52.128;9.986;2022-08-02T03:03:34;13.90;99.90
12370;DHT22;6249;52.128;9.986;2022-08-02T03:06:56;13.80;99.90
12370;DHT22;6249;52.128;9.986;2022-08-02T03:10:19;13.80;99.90
12370;DHT22;6249;52.128;9.986;2022-08-02T03:13:40;13.70;99.90
12370;DHT22;6249;52.128;9.986;2022-08-02T03:17:04;13.60;99.90
12370;DHT22;6249;52.128;9.986;2022-08-02T03:20:24;13.70;99.90
12370;DHT22;6249;52.128;9.986;2022-08-02T03:23:45;13.70;99.90
12370;DHT22;6249;52.128;9.986;2022-08-02T03:27:06;13.70;99.90
12370;DHT22;6249;52.128;9.986;2022-08-02T03:30:27;13.70;99.90
12370;DHT22;6249;52.128;9.986;2022-08-02T03:33:53;13.60;99.90
12370;DHT22;6249;52.128;9.986;2022-08-02T03:37:19;13.50;99.90
12370;DHT22;6249;52.128;9.986;2022-08-02T03:40:42;13.50;99.90
12370;DHT22;6249;52.128;9.986;2022-08-02T03:44:04;13.60;99.90
12370;DHT22;6249;52.128;9.986;2022-08-02T03:47:27;13.60;99.90
12370;DHT22;6249;52.128;9.986;2022-08-02T03:50:51;13.50;99.90
12370;DHT22;6249;52.128;9.986;2022-08-02T03:54:12;13.40;99.90
12370;DHT22;6249;52.128;9.986;2022-08-02T03:57:37;13.40;99.90
12370;DHT22;6249;52.128;9.986;2022-08-02T04:01:02;13.30;99.90
12370;DHT22;6249;52.128;9.986;2022-08-02T04:04:22;13.30;99.90
12370;DHT22;6249;52.128;9.986;2022-08-02T04:07:43;13.30;99.90
12370;DHT22;6249;52.128;9.986;2022-08-02T04:11:07;13.30;99.90
12370;DHT22;6249;52.128;9.986;2022-08-02T04:14:46;13.30;99.90
12370;DHT22;6249;52.128;9.986;2022-08-02T04:18:07;13.30;99.90
12370;DHT22;6249;52.128;9.986;2022-08-02T04:21:38;13.20;99.90
12370;DHT22;6249;52.128;9.986;2022-08-02T04:25:00;13.20;99.90
12370;DHT22;6249;52.128;9.986;2022-08-02T04:28:23;13.30;99.90
12370;DHT22;6249;52.128;9.986;2022-08-02T04:31:44;13.30;99.90
12370;DHT22;6249;52.128;9.986;2022-08-02T04:35:08;13.40;99.90
12370;DHT22;6249;52.128;9.986;2022-08-02T04:38:28;13.40;99.90
12370;DHT22;6249;52.128;9.986;2022-08-02T04:41:52;13.50;99.90
12370;DHT22;6249;52.128;9.986;2022-08-02T04:45:16;13.70;99.90
12370;DHT22;6249;52.128;9.986;2022-08-02T04:48:37;13.80;99.90
12370;DHT22;6249;52.128;9.986;2022-08-02T04:52:00;13.90;99.90
12370;DHT22;6249;52.128;9.986;2022-08-02T04:55:21;13.90;99.90
12370;DHT22;6249;52.128;9.986;2022-08-02T04:58:44;14.00;99.90
12370;DHT22;6249;52.128;9.986;2022-08-02T05:02:05;14.10;99.90
12370;DHT22;6249;52.128;9.986;2022-08-02T05:05:28;14.10;99.90
12370;DHT22;6249;52.128;9.986;2022-08-02T05:08:49;14.10;99.90
12370;DHT22;6249;52.128;9.986;2022-08-02T05:12:12;14.20;99.90
12370;DHT22;6249;52.128;9.986;2022-08-02T05:15:35;14.20;99.90
12370;DHT22;6249;52.128;9.986;2022-08-02T05:18:56;14.20;99.90
12370;DHT22;6249;52.128;9.986;2022-08-02T05:22:16;14.20;99.90
12370;DHT22;6249;52.128;9.986;2022-08-02T05:25:37;14.20;99.90
12370;DHT22;6249;52.128;9.986;2022-08-02T05:28:58;14.20;99.90
12370;DHT22;6249;52.128;9.986;2022-08-02T05:32:23;14.20;99.90
12370;DHT22;6249;52.128;9.986;2022-08-02T05:35:43;14.20;99.90
12370;DHT22;6249;52.128;9.986;2022-08-02T05:39:07;14.20;99.90
12370;DHT22;6249;52.128;9.986;2022-08-02T05:42:31;14.30;99.90
12370;DHT22;6249;52.128;9.986;2022-08-02T05:45:54;14.30;99.90
12370;DHT22;6249;52.128;9.986;2022-08-02T05:49:15;14.40;99.90
12370;DHT22;6249;52.128;9.986;2022-08-02T05:52:45;14.50;99.90
12370;DHT22;6249;52.128;9.986;2022-08-02T06:00:06;14.70;99.90
12370;DHT22;6249;52.128;9.986;2022-08-02T06:03:38;14.80;99.90
12370;DHT22;6249;52.128;9.986;2022-08-02T06:07:00;14.80;99.90
12370;DHT22;6249;52.128;9.986;2022-08-02T06:10:28;14.90;99.90
12370;DHT22;6249;52.128;9.986;2022-08-02T06:13:52;15.00;99.90
12370;DHT22;6249;52.128;9.986;2022-08-02T06:17:16;15.10;99.90
12370;DHT22;6249;52.128;9.986;2022-08-02T06:20:37;15.20;99.90
12370;DHT22;6249;52.128;9.986;2022-08-02T06:23:58;15.40;99.90
12370;DHT22;6249;52.128;9.986;2022-08-02T06:27:20;15.50;99.90
12370;DHT22;6249;52.128;9.986;2022-08-02T06:30:43;15.60;99.90
12370;DHT22;6249;52.128;9.986;2022-08-02T06:34:06;15.70;99.90
12370;DHT22;6249;52.128;9.986;2022-08-02T06:37:37;15.90;99.90
12370;DHT22;6249;52.128;9.986;2022-08-02T06:41:04;15.90;99.90
12370;DHT22;6249;52.128;9.986;2022-08-02T06:44:28;16.10;99.90
12370;DHT22;6249;52.128;9.986;2022-08-02T06:47:53;16.30;99.90
12370;DHT22;6249;52.128;9.986;2022-08-02T06:51:13;16.50;99.90
12370;DHT22;6249;52.128;9.986;2022-08-02T06:54:34;16.60;99.90
12370;DHT22;6249;52.128;9.986;2022-08-02T06:57:57;16.70;99.90
12370;DHT22;6249;52.128;9.986;2022-08-02T07:01:18;16.80;99.90
12370;DHT22;6249;52.128;9.986;2022-08-02T07:04:41;16.90;99.90
12370;DHT22;6249;52.128;9.986;2022-08-02T07:08:02;17.00;99.90
12370;DHT22;6249;52.128;9.986;2022-08-02T07:11:23;17.10;99.90
12370;DHT22;6249;52.128;9.986;2022-08-02T07:14:44;17.30;99.90
12370;DHT22;6249;52.128;9.986;2022-08-02T07:18:05;17.40;99.90
12370;DHT22;6249;52.128;9.986;2022-08-02T07:21:26;17.60;99.90
12370;DHT22;6249;52.128;9.986;2022-08-02T07:24:46;17.70;99.90
12370;DHT22;6249;52.128;9.986;2022-08-02T07:28:14;18.00;99.90
12370;DHT22;6249;52.128;9.986;2022-08-02T07:31:37;18.20;99.90
12370;DHT22;6249;52.128;9.986;2022-08-02T07:34:59;18.40;99.90
12370;DHT22;6249;52.128;9.986;2022-08-02T07:38:22;18.50;99.90
12370;DHT22;6249;52.128;9.986;2022-08-02T07:41:44;18.80;99.90
12370;DHT22;6249;52.128;9.986;2022-08-02T07:45:13;19.20;99.90
12370;DHT22;6249;52.128;9.986;2022-08-02T07:48:34;19.30;99.90
12370;DHT22;6249;52.128;9.986;2022-08-02T07:51:54;19.70;99.90
12370;DHT22;6249;52.128;9.986;2022-08-02T07:55:16;19.90;99.90
12370;DHT22;6249;52.128;9.986;2022-08-02T07:58:37;20.10;99.90
12370;DHT22;6249;52.128;9.986;2022-08-02T08:02:00;20.10;99.90
12370;DHT22;6249;52.128;9.986;2022-08-02T08:05:20;20.20;99.90
12370;DHT22;6249;52.128;9.986;2022-08-02T08:08:43;20.50;99.90
12370;DHT22;6249;52.128;9.986;2022-08-02T08:12:04;20.70;99.90
12370;DHT22;6249;52.128;9.986;2022-08-02T08:15:24;20.80;99.90
12370;DHT22;6249;52.128;9.986;2022-08-02T08:18:45;20.90;99.90
12370;DHT22;6249;52.128;9.986;2022-08-02T08:22:06;21.10;99.90
12370;DHT22;6249;52.128;9.986;2022-08-02T08:25:26;21.20;99.90
12370;DHT22;6249;52.128;9.986;2022-08-02T08:28:47;21.50;99.90
12370;DHT22;6249;52.128;9.986;2022-08-02T08:32:10;21.80;99.90
12370;DHT22;6249;52.128;9.986;2022-08-02T08:35:33;21.90;99.90
12370;DHT22;6249;52.128;9.986;2022-08-02T08:38:54;22.00;99.90
12370;DHT22;6249;52.128;9.986;2022-08-02T08:42:17;22.00;99.90
12370;DHT22;6249;52.128;9.986;2022-08-02T08:45:38;22.10;99.90
12370;DHT22;6249;52.128;9.986;2022-08-02T08:49:00;22.40;99.90
12370;DHT22;6249;52.128;9.986;2022-08-02T08:52:26;22.50;99.90
12370;DHT22;6249;52.128;9.986;2022-08-02T08:55:50;22.50;99.90
12370;DHT22;6249;52.128;9.986;2022-08-02T08:59:18;22.90;99.90
12370;DHT22;6249;52.128;9.986;2022-08-02T09:02:41;23.20;99.90
12370;DHT22;6249;52.128;9.986;2022-08-02T09:06:02;23.30;99.90
12370;DHT22;6249;52.128;9.986;2022-08-02T09:09:23;23.50;99.90
12370;DHT22;6249;52.128;9.986;2022-08-02T09:12:43;23.70;99.90
12370;DHT22;6249;52.128;9.986;2022-08-02T09:16:05;24.00;99.90
12370;DHT22;6249;52.128;9.986;2022-08-02T09:19:26;24.20;99.90
12370;DHT22;6249;52.128;9.986;2022-08-02T09:23:07;24.50;99.90
12370;DHT22;6249;52.128;9.986;2022-08-02T09:26:30;24.50;99.90
12370;DHT22;6249;52.128;9.986;2022-08-02T09:29:53;24.60;99.90
12370;DHT22;6249;52.128;9.986;2022-08-02T09:33:26;24.60;99.90
12370;DHT22;6249;52.128;9.986;2022-08-02T09:36:47;24.80;99.90
12370;DHT22;6249;52.128;9.986;2022-08-02T09:40:08;24.50;99.90
12370;DHT22;6249;52.128;9.986;2022-08-02T09:46:57;24.80;99.90
12370;DHT22;6249;52.128;9.986;2022-08-02T09:50:17;25.20;99.90
12370;DHT22;6249;52.128;9.986;2022-08-02T09:53:38;25.40;98.60
12370;DHT22;6249;52.128;9.986;2022-08-02T09:57:00;25.20;98.70
12370;DHT22;6249;52.128;9.986;2022-08-02T10:00:21;25.40;99.20
12370;DHT22;6249;52.128;9.986;2022-08-02T10:03:55;25.40;99.60
12370;DHT22;6249;52.128;9.986;2022-08-02T10:07:17;25.80;97.50
12370;DHT22;6249;52.128;9.986;2022-08-02T10:10:40;26.30;97.10
12370;DHT22;6249;52.128;9.986;2022-08-02T10:14:05;26.00;96.20
12370;DHT22;6249;52.128;9.986;2022-08-02T10:17:28;26.10;96.70
12370;DHT22;6249;52.128;9.986;2022-08-02T10:20:50;26.50;95.10
12370;DHT22;6249;52.128;9.986;2022-08-02T10:24:16;26.70;95.80
12370;DHT22;6249;52.128;9.986;2022-08-02T10:27:40;26.80;96.40
12370;DHT22;6249;52.128;9.986;2022-08-02T10:31:05;27.20;95.20
12370;DHT22;6249;52.128;9.986;2022-08-02T10:38:09;27.90;94.20
12370;DHT22;6249;52.128;9.986;2022-08-02T10:45:11;28.10;92.60
12370;DHT22;6249;52.128;9.986;2022-08-02T10:49:02;28.20;92.40
12370;DHT22;6249;52.128;9.986;2022-08-02T10:52:30;28.60;91.90
12370;DHT22;6249;52.128;9.986;2022-08-02T10:55:52;28.90;91.50
12370;DHT22;6249;52.128;9.986;2022-08-02T11:02:47;29.40;88.50
12370;DHT22;6249;52.128;9.986;2022-08-02T11:06:14;29.60;82.40
12370;DHT22;6249;52.128;9.986;2022-08-02T11:09:35;30.20;78.50
12370;DHT22;6249;52.128;9.986;2022-08-02T11:20:20;30.50;73.60
12370;DHT22;6249;52.128;9.986;2022-08-02T11:23:41;31.00;75.80
12370;DHT22;6249;52.128;9.986;2022-08-02T11:27:06;31.40;74.80
12370;DHT22;6249;52.128;9.986;2022-08-02T11:30:30;31.20;72.80
12370;DHT22;6249;52.128;9.986;2022-08-02T11:33:53;31.30;74.00
12370;DHT22;6249;52.128;9.986;2022-08-02T11:37:37;31.60;67.90
12370;DHT22;6249;52.128;9.986;2022-08-02T11:40:58;32.40;67.10
12370;DHT22;6249;52.128;9.986;2022-08-02T11:44:24;32.90;64.00
12370;DHT22;6249;52.128;9.986;2022-08-02T11:47:50;33.10;58.30
12370;DHT22;6249;52.128;9.986;2022-08-02T11:51:16;32.80;55.30
12370;DHT22;6249;52.128;9.986;2022-08-02T11:54:38;33.00;55.70
12370;DHT22;6249;52.128;9.986;2022-08-02T11:58:01;33.30;55.70
12370;DHT22;6249;52.128;9.986;2022-08-02T12:01:25;33.80;53.40
12370;DHT22;6249;52.128;9.986;2022-08-02T12:05:00;33.90;52.60
12370;DHT22;6249;52.128;9.986;2022-08-02T12:08:24;34.10;51.60
12370;DHT22;6249;52.128;9.986;2022-08-02T12:11:49;34.20;53.20
12370;DHT22;6249;52.128;9.986;2022-08-02T12:15:10;34.10;52.50
12370;DHT22;6249;52.128;9.986;2022-08-02T12:18:31;34.50;54.70
12370;DHT22;6249;52.128;9.986;2022-08-02T12:25:40;34.70;54.50
12370;DHT22;6249;52.128;9.986;2022-08-02T12:29:00;35.10;54.20
12370;DHT22;6249;52.128;9.986;2022-08-02T12:32:26;35.70;54.10
12370;DHT22;6249;52.128;9.986;2022-08-02T12:35:48;35.90;53.30
12370;DHT22;6249;52.128;9.986;2022-08-02T12:39:13;36.30;50.80
12370;DHT22;6249;52.128;9.986;2022-08-02T12:42:45;36.10;51.10
12370;DHT22;6249;52.128;9.986;2022-08-02T12:46:17;35.70;51.60
12370;DHT22;6249;52.128;9.986;2022-08-02T12:49:40;35.20;50.90
12370;DHT22;6249;52.128;9.986;2022-08-02T12:53:20;34.70;52.30
12370;DHT22;6249;52.128;9.986;2022-08-02T12:56:41;33.80;53.60
12370;DHT22;6249;52.128;9.986;2022-08-02T13:00:10;32.40;55.70
12370;DHT22;6249;52.128;9.986;2022-08-02T13:03:46;32.30;56.90
12370;DHT22;6249;52.128;9.986;2022-08-02T13:07:08;32.40;58.60
12370;DHT22;6249;52.128;9.986;2022-08-02T13:10:28;32.50;57.70
12370;DHT22;6249;52.128;9.986;2022-08-02T13:13:49;33.00;56.70
12370;DHT22;6249;52.128;9.986;2022-08-02T13:17:10;33.00;56.80
12370;DHT22;6249;52.128;9.986;2022-08-02T13:20:31;33.50;56.50
12370;DHT22;6249;52.128;9.986;2022-08-02T13:23:52;33.30;57.60
12370;DHT22;6249;52.128;9.986;2022-08-02T13:27:14;32.90;57.10
12370;DHT22;6249;52.128;9.986;2022-08-02T13:30:35;33.30;57.70
12370;DHT22;6249;52.128;9.986;2022-08-02T13:33:56;33.60;57.20
12370;DHT22;6249;52.128;9.986;2022-08-02T13:37:17;34.00;55.60
12370;DHT22;6249;52.128;9.986;2022-08-02T13:40:37;34.20;55.80
12370;DHT22;6249;52.128;9.986;2022-08-02T13:44:18;34.20;54.70
12370;DHT22;6249;52.128;9.986;2022-08-02T13:47:42;34.40;54.90
12370;DHT22;6249;52.128;9.986;2022-08-02T13:51:03;35.10;54.70
12370;DHT22;6249;52.128;9.986;2022-08-02T13:54:26;35.40;52.20
12370;DHT22;6249;52.128;9.986;2022-08-02T13:57:49;35.80;51.20
12370;DHT22;6249;52.128;9.986;2022-08-02T14:01:10;36.70;52.10
12370;DHT22;6249;52.128;9.986;2022-08-02T14:04:33;36.50;49.60
12370;DHT22;6249;52.128;9.986;2022-08-02T14:07:58;36.30;50.90
12370;DHT22;6249;52.128;9.986;2022-08-02T14:11:19;36.10;51.60
12370;DHT22;6249;52.128;9.986;2022-08-02T14:14:39;35.70;52.20
12370;DHT22;6249;52.128;9.986;2022-08-02T14:18:02;35.90;51.20
12370;DHT22;6249;52.128;9.986;2022-08-02T14:21:23;35.70;51.50
12370;DHT22;6249;52.128;9.986;2022-08-02T14:24:44;35.30;52.30
12370;DHT22;6249;52.128;9.986;2022-08-02T14:28:04;35.90;51.20
12370;DHT22;6249;52.128;9.986;2022-08-02T14:31:25;35.90;51.00
12370;DHT22;6249;52.128;9.986;2022-08-02T14:34:48;34.90;51.20
12370;DHT22;6249;52.128;9.986;2022-08-02T14:38:08;34.30;52.80
12370;DHT22;6249;52.128;9.986;2022-08-02T14:41:29;34.20;53.10
12370;DHT22;6249;52.128;9.986;2022-08-02T14:44:55;34.20;53.60
12370;DHT22;6249;52.128;9.986;2022-08-02T14:48:15;34.90;51.50
12370;DHT22;6249;52.128;9.986;2022-08-02T14:51:39;35.50;52.00
12370;DHT22;6249;52.128;9.986;2022-08-02T14:55:05;35.90;51.40
12370;DHT22;6249;52.128;9.986;2022-08-02T14:58:25;35.80;50.90
12370;DHT22;6249;52.128;9.986;2022-08-02T15:01:48;35.40;51.30
12370;DHT22;6249;52.128;9.986;2022-08-02T15:05:11;35.80;51.00
12370;DHT22;6249;52.128;9.986;2022-08-02T15:08:32;35.90;51.60
12370;DHT22;6249;52.128;9.986;2022-08-02T15:11:55;35.90;50.70
12370;DHT22;6249;52.128;9.986;2022-08-02T15:15:16;36.20;50.90
12370;DHT22;6249;52.128;9.986;2022-08-02T15:18:38;36.60;50.40
12370;DHT22;6249;52.128;9.986;2022-08-02T15:21:59;36.60;50.20
12370;DHT22;6249;52.128;9.986;2022-08-02T15:25:20;36.70;49.10
12370;DHT22;6249;52.128;9.986;2022-08-02T15:28:43;36.90;49.60
12370;DHT22;6249;52.128;9.986;2022-08-02T15:32:06;37.00;49.20
12370;DHT22;6249;52.128;9.986;2022-08-02T15:35:29;36.20;49.40
12370;DHT22;6249;52.128;9.986;2022-08-02T15:38:50;36.80;49.30
12370;DHT22;6249;52.128;9.986;2022-08-02T15:42:11;36.40;50.10
12370;DHT22;6249;52.128;9.986;2022-08-02T15:45:33;36.40;49.90
12370;DHT22;6249;52.128;9.986;2022-08-02T15:48:55;36.50;49.50
12370;DHT22;6249;52.128;9.986;2022-08-02T15:52:16;36.50;50.10
12370;DHT22;6249;52.128;9.986;2022-08-02T15:55:37;37.10;49.40
12370;DHT22;6249;52.128;9.986;2022-08-02T15:59:02;37.10;48.50
12370;DHT22;6249;52.128;9.986;2022-08-02T16:02:23;36.90;47.90
12370;DHT22;6249;52.128;9.986;2022-08-02T16:05:44;36.80;48.60
12370;DHT22;6249;52.128;9.986;2022-08-02T16:09:07;36.70;48.10
12370;DHT22;6249;52.128;9.986;2022-08-02T16:12:27;36.00;48.70
12370;DHT22;6249;52.128;9.986;2022-08-02T16:15:48;35.20;50.60
12370;DHT22;6249;52.128;9.986;2022-08-02T16:19:11;34.30;51.40
12370;DHT22;6249;52.128;9.986;2022-08-02T16:22:34;33.30;53.00
12370;DHT22;6249;52.128;9.986;2022-08-02T16:25:57;32.90;53.90
12370;DHT22;6249;52.128;9.986;2022-08-02T16:29:21;32.30;55.90
12370;DHT22;6249;52.128;9.986;2022-08-02T16:32:41;31.40;56.60
12370;DHT22;6249;52.128;9.986;2022-08-02T16:36:04;30.90;58.20
12370;DHT22;6249;52.128;9.986;2022-08-02T16:39:27;30.80;59.80
12370;DHT22;6249;52.128;9.986;2022-08-02T16:42:50;30.50;60.00
12370;DHT22;6249;52.128;9.986;2022-08-02T16:46:14;30.40;60.60
12370;DHT22;6249;52.128;9.986;2022-08-02T16:49:37;30.00;62.80
12370;DHT22;6249;52.128;9.986;2022-08-02T16:53:02;29.80;63.20
12370;DHT22;6249;52.128;9.986;2022-08-02T16:56:25;29.90;64.50
12370;DHT22;6249;52.128;9.986;2022-08-02T16:59:46;30.00;64.10
12370;DHT22;6249;52.128;9.986;2022-08-02T17:03:07;30.00;64.50
12370;DHT22;6249;52.128;9.986;2022-08-02T17:06:30;29.80;64.50
12370;DHT22;6249;52.128;9.986;2022-08-02T17:09:51;29.70;65.30
12370;DHT22;6249;52.128;9.986;2022-08-02T17:13:11;29.70;65.80
12370;DHT22;6249;52.128;9.986;2022-08-02T17:16:32;29.40;66.30
12370;DHT22;6249;52.128;9.986;2022-08-02T17:19:53;29.40;67.60
12370;DHT22;6249;52.128;9.986;2022-08-02T17:23:13;29.40;66.70
12370;DHT22;6249;52.128;9.986;2022-08-02T17:26:37;29.20;67.50
12370;DHT22;6249;52.128;9.986;2022-08-02T17:30:00;29.20;67.10
12370;DHT22;6249;52.128;9.986;2022-08-02T17:33:21;29.10;68.00
12370;DHT22;6249;52.128;9.986;2022-08-02T17:36:44;29.10;68.40
12370;DHT22;6249;52.128;9.986;2022-08-02T17:40:06;29.00;68.30
12370;DHT22;6249;52.128;9.986;2022-08-02T17:43:29;28.90;69.10
12370;DHT22;6249;52.128;9.986;2022-08-02T17:46:50;28.80;68.60
12370;DHT22;6249;52.128;9.986;2022-08-02T17:50:13;28.80;68.50
12370;DHT22;6249;52.128;9.986;2022-08-02T17:53:33;28.60;69.30
12370;DHT22;6249;52.128;9.986;2022-08-02T17:56:54;28.50;69.50
12370;DHT22;6249;52.128;9.986;2022-08-02T18:00:15;28.50;70.40
12370;DHT22;6249;52.128;9.986;2022-08-02T18:03:36;28.50;70.50
12370;DHT22;6249;52.128;9.986;2022-08-02T18:07:01;28.50;71.20
12370;DHT22;6249;52.128;9.986;2022-08-02T18:10:22;28.40;72.00
12370;DHT22;6249;52.128;9.986;2022-08-02T18:13:43;28.40;72.60
12370;DHT22;6249;52.128;9.986;2022-08-02T18:17:04;28.30;73.10
12370;DHT22;6249;52.128;9.986;2022-08-02T18:20:28;28.20;74.30
12370;DHT22;6249;52.128;9.986;2022-08-02T18:23:49;28.00;74.40
12370;DHT22;6249;52.128;9.986;2022-08-02T18:27:10;28.00;75.50
12370;DHT22;6249;52.128;9.986;2022-08-02T18:30:32;27.90;76.60
12370;DHT22;6249;52.128;9.986;2022-08-02T18:33:54;27.80;77.00
12370;DHT22;6249;52.128;9.986;2022-08-02T18:37:14;27.80;78.10
12370;DHT22;6249;52.128;9.986;2022-08-02T18:40:37;27.60;78.30
12370;DHT22;6249;52.128;9.986;2022-08-02T18:43:58;27.60;78.90
12370;DHT22;6249;52.128;9.986;2022-08-02T18:47:20;27.50;80.10
12370;DHT22;6249;52.128;9.986;2022-08-02T18:50:44;27.50;81.10
12370;DHT22;6249;52.128;9.986;2022-08-02T18:54:10;27.40;80.40
12370;DHT22;6249;52.128;9.986;2022-08-02T18:57:30;27.30;81.20
12370;DHT22;6249;52.128;9.986;2022-08-02T19:00:51;27.30;83.50
12370;DHT22;6249;52.128;9.986;2022-08-02T19:04:12;27.20;81.90
12370;DHT22;6249;52.128;9.986;2022-08-02T19:07:33;27.20;82.50
12370;DHT22;6249;52.128;9.986;2022-08-02T19:10:55;27.20;86.10
12370;DHT22;6249;52.128;9.986;2022-08-02T19:14:19;27.10;87.70
12370;DHT22;6249;52.128;9.986;2022-08-02T19:17:43;27.10;89.00
12370;DHT22;6249;52.128;9.986;2022-08-02T19:21:03;27.10;90.00
12370;DHT22;6249;52.128;9.986;2022-08-02T19:24:24;26.90;91.10
12370;DHT22;6249;52.128;9.986;2022-08-02T19:27:47;26.70;91.00
12370;DHT22;6249;52.128;9.986;2022-08-02T19:31:08;26.50;91.60
12370;DHT22;6249;52.128;9.986;2022-08-02T19:34:31;26.30;92.50
12370;DHT22;6249;52.128;9.986;2022-08-02T19:37:54;26.30;93.20
12370;DHT22;6249;52.128;9.986;2022-08-02T19:41:17;26.10;93.50
12370;DHT22;6249;52.128;9.986;2022-08-02T19:44:38;26.10;93.80
12370;DHT22;6249;52.128;9.986;2022-08-02T19:48:04;26.00;94.90
12370;DHT22;6249;52.128;9.986;2022-08-02T19:51:24;26.00;95.40
12370;DHT22;6249;52.128;9.986;2022-08-02T19:54:45;25.90;95.30
12370;DHT22;6249;52.128;9.986;2022-08-02T19:58:08;25.90;95.50
12370;DHT22;6249;52.128;9.986;2022-08-02T20:01:36;25.80;95.40
12370;DHT22;6249;52.128;9.986;2022-08-02T20:05:01;25.70;96.10
12370;DHT22;6249;52.128;9.986;2022-08-02T20:08:22;25.60;96.30
12370;DHT22;6249;52.128;9.986;2022-08-02T20:11:44;25.50;96.70
12370;DHT22;6249;52.128;9.986;2022-08-02T20:15:06;25.40;96.80
12370;DHT22;6249;52.128;9.986;2022-08-02T20:18:26;25.30;97.60
12370;DHT22;6249;52.128;9.986;2022-08-02T20:21:51;25.10;97.80
12370;DHT22;6249;52.128;9.986;2022-08-02T20:25:14;25.10;98.40
12370;DHT22;6249;52.128;9.986;2022-08-02T20:28:37;25.00;98.50
12370;DHT22;6249;52.128;9.986;2022-08-02T20:31:57;25.00;99.80
12370;DHT22;6249;52.128;9.986;2022-08-02T20:35:18;24.90;99.70
12370;DHT22;6249;52.128;9.986;2022-08-02T20:38:39;24.80;99.90
12370;DHT22;6249;52.128;9.986;2022-08-02T20:42:00;24.80;99.90
12370;DHT22;6249;52.128;9.986;2022-08-02T20:45:24;24.80;99.90
12370;DHT22;6249;52.128;9.986;2022-08-02T20:48:49;24.70;99.90
12370;DHT22;6249;52.128;9.986;2022-08-02T20:52:10;24.70;99.90
12370;DHT22;6249;52.128;9.986;2022-08-02T20:55:38;24.70;99.90
12370;DHT22;6249;52.128;9.986;2022-08-02T20:58:59;24.60;99.90
12370;DHT22;6249;52.128;9.986;2022-08-02T21:02:20;24.50;99.90
12370;DHT22;6249;52.128;9.986;2022-08-02T21:05:42;24.50;99.90
12370;DHT22;6249;52.128;9.986;2022-08-02T21:09:02;24.40;99.90
12370;DHT22;6249;52.128;9.986;2022-08-02T21:12:23;24.40;99.90
12370;DHT22;6249;52.128;9.986;2022-08-02T21:15:44;24.40;99.90
12370;DHT22;6249;52.128;9.986;2022-08-02T21:19:09;24.30;99.90
12370;DHT22;6249;52.128;9.986;2022-08-02T21:22:30;24.30;99.90
12370;DHT22;6249;52.128;9.986;2022-08-02T21:25:53;24.10;99.90
12370;DHT22;6249;52.128;9.986;2022-08-02T21:29:13;24.10;99.90
12370;DHT22;6249;52.128;9.986;2022-08-02T21:32:36;24.00;99.90
12370;DHT22;6249;52.128;9.986;2022-08-02T21:35:57;23.80;99.90
12370;DHT22;6249;52.128;9.986;2022-08-02T21:39:17;23.80;99.90
12370;DHT22;6249;52.128;9.986;2022-08-02T21:42:41;23.60;99.90
12370;DHT22;6249;52.128;9.986;2022-08-02T21:46:01;23.50;99.90
12370;DHT22;6249;52.128;9.986;2022-08-02T21:49:24;23.40;99.90
12370;DHT22;6249;52.128;9.986;2022-08-02T21:52:45;23.30;99.90
12370;DHT22;6249;52.128;9.986;2022-08-02T21:56:05;23.20;99.90
12370;DHT22;6249;52.128;9.986;2022-08-02T21:59:26;23.20;99.90
12370;DHT22;6249;52.128;9.986;2022-08-02T22:02:51;23.20;99.90
12370;DHT22;6249;52.128;9.986;2022-08-02T22:06:17;23.10;99.90
12370;DHT22;6249;52.128;9.986;2022-08-02T22:09:40;23.10;99.90
12370;DHT22;6249;52.128;9.986;2022-08-02T22:13:01;23.10;99.90
12370;DHT22;6249;52.128;9.986;2022-08-02T22:16:24;23.10;99.90